Time;durP1;ratioP1;P1;durP2;ratioP2;P2;SDS_P1;SDS_P2;PMS_P1;PMS_P2;Temp;Humidity;BMP_temperature;BMP_pressure;BME280_temperature;BME280_humidity;BME280_pressure;Samples;Min_cycle;Max_cycle;Signal;HPM_P1;HPM_P2
2021/04/24 00:02:20;;;;;;;12.35;6.18;;;;;;;15.73;42.08;100061.41;5032965;28;20458;-37
2021/04/24 00:04:46;;;;;;;7.93;5.90;;;;;;;15.93;41.76;100095.16;5032679;28;20036;-37
2021/04/24 00:07:11;;;;;;;10.93;6.28;;;;;;;16.15;41.74;100098.13;5032733;28;20052;-38
2021/04/24 00:09:37;;;;;;;8.25;6.18;;;;;;;15.85;42.05;100106.22;5032519;28;20036;-37
2021/04/24 00:12:03;;;;;;;8.57;5.80;;;;;;;15.96;42.11;100108.13;5032842;28;20033;-37
2021/04/24 00:14:29;;;;;;;9.57;6.43;;;;;;;16.03;41.37;100106.97;5032413;28;20029;-37
2021/04/24 00:16:54;;;;;;;8.57;6.18;;;;;;;15.76;41.89;100100.34;5032503;28;20021;-38
2021/04/24 00:19:19;;;;;;;10.07;5.93;;;;;;;16.30;41.63;100108.44;5030705;28;20473;-38
2021/04/24 00:21:45;;;;;;;8.55;5.82;;;;;;;15.95;41.52;100103.78;5032576;28;20029;-39
2021/04/24 00:24:11;;;;;;;8.75;5.60;;;;;;;15.99;41.65;100103.13;5031162;28;20171;-38
2021/04/24 00:26:36;;;;;;;7.95;5.78;;;;;;;15.69;42.16;100102.28;5030856;28;20444;-38
2021/04/24 00:29:02;;;;;;;11.18;6.10;;;;;;;15.61;42.64;100095.38;5032373;28;20030;-38
2021/04/24 00:31:27;;;;;;;11.00;5.95;;;;;;;15.85;42.11;100099.00;5032127;28;20056;-38
2021/04/24 00:33:53;;;;;;;7.85;5.85;;;;;;;15.86;41.18;100094.44;5031970;28;20031;-38
2021/04/24 00:36:18;;;;;;;7.72;5.63;;;;;;;15.77;41.47;100088.59;5031590;28;20393;-38
2021/04/24 00:38:44;;;;;;;8.07;5.80;;;;;;;15.74;41.58;100086.34;5032056;28;20021;-37
2021/04/24 00:41:09;;;;;;;10.18;6.05;;;;;;;15.54;41.90;100092.81;5031566;28;20485;-37
2021/04/24 00:43:35;;;;;;;10.60;6.15;;;;;;;15.92;41.30;100099.72;5031730;28;20106;-38
2021/04/24 00:46:26;;;;;;;10.13;5.75;;;;;;;15.67;41.64;100091.81;5031636;28;20033;-38
2021/04/24 00:48:52;;;;;;;9.45;5.97;;;;;;;15.41;41.89;100088.44;5010760;28;20062;-38
2021/04/24 00:51:17;;;;;;;8.98;6.10;;;;;;;15.43;42.26;100085.53;5011816;28;20088;-38
2021/04/24 00:53:43;;;;;;;9.38;5.93;;;;;;;15.22;42.36;100084.97;5012130;28;20037;-38
2021/04/24 00:56:08;;;;;;;9.02;5.50;;;;;;;15.58;40.96;100091.28;5011880;28;20117;-38
2021/04/24 00:58:34;;;;;;;9.43;5.50;;;;;;;15.70;40.54;100085.97;5011967;28;20033;-38
2021/04/24 01:01:00;;;;;;;9.98;5.80;;;;;;;15.52;41.13;100088.72;5010404;28;20532;-38
2021/04/24 01:03:25;;;;;;;10.38;5.38;;;;;;;15.28;40.88;100077.88;5011778;28;20117;-38
2021/04/24 01:05:51;;;;;;;8.15;5.35;;;;;;;15.36;40.79;100079.44;5011834;28;20449;-37
2021/04/24 01:08:16;;;;;;;11.68;5.60;;;;;;;15.22;40.78;100076.09;5011865;28;20045;-38
2021/04/24 01:10:44;;;;;;;10.02;5.40;;;;;;;15.66;39.94;100094.72;5011559;28;20054;-38
2021/04/24 01:13:09;;;;;;;9.13;5.68;;;;;;;15.81;39.35;100084.41;5011795;28;20558;-38
2021/04/24 01:15:35;;;;;;;9.02;5.25;;;;;;;15.40;40.35;100094.00;5011682;28;20034;-38
2021/04/24 01:18:00;;;;;;;9.52;5.50;;;;;;;15.30;40.52;100085.69;5011708;28;20022;-37
2021/04/24 01:20:26;;;;;;;9.73;5.43;;;;;;;15.53;40.03;100090.34;5011395;28;20048;-38
2021/04/24 01:22:51;;;;;;;9.93;5.68;;;;;;;15.54;39.78;100092.81;5011250;28;20084;-38
2021/04/24 01:25:22;;;;;;;7.55;4.90;;;;;;;15.57;39.83;100094.19;5010285;28;20033;-37
2021/04/24 01:27:57;;;;;;;8.15;5.47;;;;;;;15.01;40.91;100090.78;5011479;28;20025;-38
2021/04/24 01:30:27;;;;;;;8.35;5.50;;;;;;;15.28;40.20;100098.53;5011821;28;20021;-37
2021/04/24 01:32:54;;;;;;;8.23;5.15;;;;;;;15.23;39.91;100102.69;5011343;28;20022;-39
2021/04/24 01:35:21;;;;;;;8.23;5.57;;;;;;;14.72;40.70;100066.38;5010997;28;20033;-38
2021/04/24 01:37:47;;;;;;;8.13;5.25;;;;;;;14.81;40.68;100094.53;5011576;28;20018;-38
2021/04/24 01:40:13;;;;;;;8.73;5.18;;;;;;;15.16;39.93;100093.09;5011548;28;20617;-37
2021/04/24 01:42:39;;;;;;;11.05;5.32;;;;;;;14.79;40.62;100090.41;5011373;28;20029;-38
2021/04/24 01:45:07;;;;;;;8.77;5.20;;;;;;;14.83;40.34;100102.31;5028087;28;20025;-39
2021/04/24 01:47:33;;;;;;;10.48;5.32;;;;;;;14.99;40.21;100085.66;5030946;28;20029;-37
2021/04/24 01:49:59;;;;;;;10.48;5.70;;;;;;;15.08;40.02;100096.91;5031074;28;20154;-39
2021/04/24 01:52:34;;;;;;;9.07;5.38;;;;;;;14.85;40.21;100111.78;5031091;28;20553;-37
2021/04/24 01:54:59;;;;;;;7.40;4.90;;;;;;;14.91;40.23;100110.09;5030909;28;20473;-38
2021/04/24 01:57:25;;;;;;;9.65;5.00;;;;;;;14.92;40.29;100109.03;5030749;28;20025;-37
2021/04/24 01:59:50;;;;;;;10.57;5.32;;;;;;;14.58;40.89;100110.41;5030929;28;20029;-38
2021/04/24 02:02:16;;;;;;;10.15;5.53;;;;;;;14.72;40.53;100109.25;5030847;28;20021;-37
2021/04/24 02:04:41;;;;;;;11.48;5.32;;;;;;;14.95;40.21;100116.63;5030817;28;20424;-38
2021/04/24 02:07:09;;;;;;;9.65;5.30;;;;;;;14.94;40.27;100114.97;5030380;28;20025;-38
2021/04/24 02:09:34;;;;;;;9.30;5.70;;;;;;;15.06;39.72;100101.69;5029520;28;20026;-37
2021/04/24 02:12:05;;;;;;;9.07;5.25;;;;;;;15.10;39.55;100118.09;5030517;28;20068;-37
2021/04/24 02:14:38;;;;;;;7.35;4.63;;;;;;;15.42;38.94;100118.75;5030283;28;20030;-39
2021/04/24 02:17:05;;;;;;;8.07;5.07;;;;;;;15.07;39.52;100124.72;5030447;28;20021;-39
2021/04/24 02:19:30;;;;;;;7.47;5.10;;;;;;;15.23;38.96;100128.66;5030325;28;20021;-39
2021/04/24 02:21:56;;;;;;;8.68;5.50;;;;;;;15.21;39.38;100123.56;5030608;28;20044;-39
2021/04/24 02:24:21;;;;;;;10.00;5.35;;;;;;;15.51;38.68;100125.44;5030556;28;20021;-39
2021/04/24 02:26:47;;;;;;;7.15;4.90;;;;;;;15.08;39.50;100126.38;5030604;28;20390;-39
2021/04/24 02:29:12;;;;;;;9.68;5.18;;;;;;;14.96;39.84;100122.78;5030440;28;20021;-39
2021/04/24 02:31:38;;;;;;;8.18;5.20;;;;;;;14.71;40.22;100121.00;5012554;28;20030;-38
2021/04/24 02:34:03;;;;;;;9.48;4.97;;;;;;;14.72;40.30;100119.16;5030034;28;20029;-38
2021/04/24 02:36:29;;;;;;;10.93;4.82;;;;;;;14.52;40.39;100119.28;5030339;28;20032;-38
2021/04/24 02:38:54;;;;;;;9.52;5.10;;;;;;;14.41;40.69;100132.38;5029521;28;20021;-38
2021/04/24 02:41:20;;;;;;;9.73;4.72;;;;;;;14.48;40.43;100125.09;5029374;28;20026;-38
2021/04/24 02:43:45;;;;;;;9.82;5.03;;;;;;;14.82;39.40;100133.66;5029351;28;20014;-38
2021/04/24 02:46:12;;;;;;;10.23;4.80;;;;;;;14.48;39.79;100138.47;5030623;28;20017;-39
2021/04/24 02:48:37;;;;;;;9.55;5.10;;;;;;;15.04;38.80;100135.88;5033489;28;20075;-38
2021/04/24 02:51:03;;;;;;;8.73;5.13;;;;;;;14.60;39.90;100135.09;5032214;28;20018;-39
2021/04/24 02:53:28;;;;;;;10.98;5.10;;;;;;;14.28;40.01;100137.84;5033987;28;20029;-38
2021/04/24 02:55:54;;;;;;;11.65;5.25;;;;;;;14.42;40.16;100142.03;5033990;28;20025;-46
2021/04/24 02:58:19;;;;;;;9.23;5.28;;;;;;;14.05;41.07;100144.59;5033862;28;20493;-38
2021/04/24 03:00:45;;;;;;;10.43;5.10;;;;;;;14.29;40.71;100142.13;5033893;28;20089;-38
2021/04/24 03:03:12;;;;;;;10.30;5.40;;;;;;;14.75;39.53;100140.13;5033807;28;20060;-38
2021/04/24 03:05:38;;;;;;;8.93;5.30;;;;;;;15.03;39.01;100135.09;5033824;28;20555;-37
2021/04/24 03:08:04;;;;;;;9.95;5.25;;;;;;;15.02;39.00;100137.97;5033961;28;20028;-37
2021/04/24 03:10:30;;;;;;;8.75;5.03;;;;;;;15.12;39.04;100137.47;5033449;28;20054;-38
2021/04/24 03:12:55;;;;;;;8.05;4.78;;;;;;;15.17;39.12;100137.63;5033594;28;20462;-37
2021/04/24 03:15:21;;;;;;;10.88;5.65;;;;;;;14.97;39.36;100130.63;5033308;28;20050;-38
2021/04/24 03:17:47;;;;;;;10.70;5.07;;;;;;;14.62;40.30;100133.88;5033541;28;20032;-38
2021/04/24 03:20:13;;;;;;;8.85;4.80;;;;;;;14.06;41.35;100137.38;5033647;28;20025;-38
2021/04/24 03:22:38;;;;;;;10.63;5.25;;;;;;;13.77;43.37;100136.13;5033434;28;20021;-38
2021/04/24 03:25:05;;;;;;;10.75;5.18;;;;;;;13.71;43.79;100143.16;5033399;28;20067;-37
2021/04/24 03:27:31;;;;;;;9.32;5.10;;;;;;;13.29;43.88;100140.84;5033203;28;20477;-38
2021/04/24 03:29:56;;;;;;;8.10;5.10;;;;;;;13.09;44.58;100145.44;5033065;28;20033;-38
2021/04/24 03:32:22;;;;;;;11.25;5.38;;;;;;;13.06;44.42;100148.50;5033018;28;20108;-37
2021/04/24 03:34:47;;;;;;;13.85;5.35;;;;;;;13.57;42.54;100145.06;5033212;28;20025;-37
2021/04/24 03:37:13;;;;;;;10.60;4.95;;;;;;;13.72;42.96;100138.63;5033303;28;20021;-37
2021/04/24 03:39:38;;;;;;;7.82;5.15;;;;;;;12.78;43.55;100143.47;5033320;28;20389;-37
2021/04/24 03:42:04;;;;;;;12.85;5.53;;;;;;;12.30;44.12;100131.19;5033301;28;20033;-37
2021/04/24 03:44:29;;;;;;;9.63;5.18;;;;;;;12.72;43.48;100139.75;5033185;28;20049;-37
2021/04/24 03:46:55;;;;;;;11.18;4.75;;;;;;;13.14;42.22;100134.13;5032493;28;20033;-38
2021/04/24 03:49:20;;;;;;;8.48;4.80;;;;;;;12.85;42.04;100144.25;5033118;28;20036;-36
2021/04/24 03:51:46;;;;;;;8.90;4.60;;;;;;;12.67;42.36;100144.91;5032899;28;20478;-38
2021/04/24 03:54:11;;;;;;;9.88;5.10;;;;;;;12.81;42.36;100145.69;5032782;28;20013;-37
2021/04/24 03:56:37;;;;;;;10.45;5.22;;;;;;;13.11;41.60;100154.06;5032901;28;20032;-37
2021/04/24 03:59:02;;;;;;;12.20;6.45;;;;;;;13.01;41.88;100167.84;5032827;28;20017;-38
2021/04/24 04:01:28;;;;;;;10.55;5.25;;;;;;;12.59;42.17;100158.47;5032662;28;20082;-38
2021/04/24 04:03:53;;;;;;;14.43;8.07;;;;;;;12.53;42.83;100170.78;5032647;28;20037;-38
2021/04/24 04:06:19;;;;;;;11.45;5.38;;;;;;;12.68;42.90;100163.38;5032665;28;20026;-38
2021/04/24 04:08:44;;;;;;;8.32;4.97;;;;;;;13.09;41.97;100162.28;5032267;28;20485;-37
2021/04/24 04:11:10;;;;;;;10.10;4.82;;;;;;;12.31;42.99;100159.47;5032439;28;20062;-38
2021/04/24 04:13:35;;;;;;;13.15;5.25;;;;;;;12.44;43.32;100164.81;5032709;28;20028;-38
2021/04/24 04:16:01;;;;;;;9.32;5.53;;;;;;;12.33;43.88;100162.78;5032382;28;20030;-38
2021/04/24 04:18:26;;;;;;;10.30;5.10;;;;;;;12.91;43.24;100170.16;5032484;28;20048;-38
2021/04/24 04:20:53;;;;;;;11.55;5.05;;;;;;;12.96;42.60;100172.19;5032407;28;20017;-38
2021/04/24 04:23:18;;;;;;;7.78;5.00;;;;;;;13.09;42.59;100177.50;5032283;28;20025;-38
2021/04/24 04:25:45;;;;;;;11.05;5.00;;;;;;;12.53;43.66;100178.81;5031992;28;20040;-39
2021/04/24 04:28:10;;;;;;;8.23;4.43;;;;;;;13.04;42.84;100177.28;5031659;28;20472;-39
2021/04/24 04:30:36;;;;;;;13.25;5.32;;;;;;;13.04;42.95;100170.13;5031830;28;20504;-38
2021/04/24 04:33:02;;;;;;;10.40;4.90;;;;;;;12.76;43.32;100177.56;5031573;28;20033;-38
2021/04/24 04:35:27;;;;;;;11.45;5.03;;;;;;;12.47;43.88;100172.44;5032072;28;20025;-38
2021/04/24 04:37:53;;;;;;;8.63;4.97;;;;;;;13.33;42.21;100173.34;5031825;28;20569;-38
2021/04/24 04:40:19;;;;;;;9.13;4.97;;;;;;;12.91;43.02;100172.81;5030825;28;20040;-37
2021/04/24 04:42:44;;;;;;;10.73;5.15;;;;;;;12.57;43.26;100168.53;5030089;28;20068;-38
2021/04/24 04:45:11;;;;;;;9.45;5.05;;;;;;;13.01;43.09;100183.06;5031081;28;20052;-38
2021/04/24 04:47:36;;;;;;;9.85;5.40;;;;;;;13.59;41.52;100182.28;5030968;28;20068;-38
2021/04/24 04:50:04;;;;;;;10.32;5.25;;;;;;;12.96;43.00;100180.19;5031237;28;20136;-37
2021/04/24 04:52:29;;;;;;;11.70;5.50;;;;;;;12.74;42.75;100188.44;5031106;28;20026;-37
2021/04/24 04:54:55;;;;;;;9.55;5.20;;;;;;;13.43;41.64;100200.44;5031588;28;20389;-37
2021/04/24 04:57:20;;;;;;;11.35;5.40;;;;;;;13.04;42.32;100188.81;5031347;28;20028;-37
2021/04/24 04:59:46;;;;;;;9.48;5.50;;;;;;;12.98;42.81;100178.13;5031227;28;20025;-43
2021/04/24 05:02:11;;;;;;;21.48;12.85;;;;;;;13.28;42.64;100189.16;5031202;28;20029;-38
2021/04/24 05:04:37;;;;;;;19.67;9.90;;;;;;;13.69;42.10;100188.81;5031060;28;20723;-39
2021/04/24 05:07:03;;;;;;;17.38;8.85;;;;;;;13.65;41.26;100192.97;5031149;28;20025;-39
2021/04/24 05:09:28;;;;;;;9.98;5.72;;;;;;;12.85;44.11;100192.31;5030590;28;20034;-39
2021/04/24 05:11:54;;;;;;;11.75;6.72;;;;;;;13.32;41.68;100197.59;5031039;28;20050;-38
2021/04/24 05:14:19;;;;;;;9.57;5.15;;;;;;;13.54;41.21;100201.66;5031285;28;20033;-37
2021/04/24 05:16:44;;;;;;;8.30;4.40;;;;;;;13.29;41.83;100196.97;5030881;28;20025;-38
2021/04/24 05:19:10;;;;;;;11.85;4.40;;;;;;;13.00;42.71;100210.78;5031063;28;20033;-38
2021/04/24 05:21:36;;;;;;;9.57;4.80;;;;;;;13.58;41.46;100204.72;5030533;28;20025;-38
2021/04/24 05:24:02;;;;;;;7.80;4.63;;;;;;;13.58;40.52;100202.88;5030536;28;20026;-37
2021/04/24 05:26:27;;;;;;;8.68;4.75;;;;;;;12.90;41.03;100179.16;5029588;28;20449;-37
2021/04/24 05:28:53;;;;;;;8.85;4.20;;;;;;;12.99;41.32;100209.97;5030321;28;20036;-39
2021/04/24 05:31:18;;;;;;;13.90;6.75;;;;;;;13.35;40.00;100208.69;5030923;28;20417;-37
2021/04/24 05:33:44;;;;;;;8.68;5.60;;;;;;;13.02;40.41;100214.91;5030853;28;20381;-38
2021/04/24 05:36:12;;;;;;;7.30;4.28;;;;;;;12.98;40.73;100213.66;5030946;28;20033;-38
2021/04/24 05:38:38;;;;;;;10.13;4.53;;;;;;;13.56;39.49;100204.13;5031341;28;20075;-38
2021/04/24 05:41:04;;;;;;;13.10;4.75;;;;;;;13.42;39.62;100197.97;5028822;28;20019;-38
2021/04/24 05:43:29;;;;;;;10.95;4.88;;;;;;;13.10;39.51;100213.88;5030106;28;20030;-38
2021/04/24 05:45:55;;;;;;;9.75;4.82;;;;;;;13.51;39.44;100220.78;5030128;28;20021;-36
2021/04/24 05:48:20;;;;;;;10.52;4.80;;;;;;;13.96;38.76;100215.44;5029543;28;20040;-38
2021/04/24 05:50:46;;;;;;;10.07;4.82;;;;;;;13.55;39.25;100219.31;5029962;28;20359;-38
2021/04/24 05:53:11;;;;;;;7.53;4.85;;;;;;;13.44;39.15;100222.66;5030274;28;20048;-38
2021/04/24 05:55:37;;;;;;;10.80;4.43;;;;;;;13.77;39.15;100211.84;5030073;28;20371;-38
2021/04/24 05:58:03;;;;;;;7.32;4.75;;;;;;;13.69;39.11;100209.41;5030278;28;20036;-38
2021/04/24 06:00:28;;;;;;;10.02;4.82;;;;;;;13.51;40.07;100196.72;5025155;28;20030;-37
2021/04/24 06:02:54;;;;;;;10.20;4.93;;;;;;;13.43;40.03;100216.47;5018082;28;20024;-37
2021/04/24 06:05:19;;;;;;;10.25;5.13;;;;;;;13.86;39.16;100207.06;5029920;28;20018;-37
2021/04/24 06:07:45;;;;;;;11.25;5.18;;;;;;;13.58;40.19;100213.56;5029774;28;20190;-39
2021/04/24 06:10:12;;;;;;;11.63;4.95;;;;;;;13.62;40.38;100206.75;5029751;28;20401;-38
2021/04/24 06:12:39;;;;;;;47.58;23.25;;;;;;;14.29;38.94;100214.41;5030064;28;20474;-38
2021/04/24 06:15:06;;;;;;;11.70;5.57;;;;;;;13.97;39.64;100216.25;5029529;28;20022;-37
2021/04/24 06:17:31;;;;;;;11.93;4.88;;;;;;;13.23;40.95;100219.19;5028342;28;20470;-37
2021/04/24 06:19:57;;;;;;;10.15;4.97;;;;;;;13.66;40.71;100220.53;5029578;28;20032;-37
2021/04/24 06:22:22;;;;;;;10.38;5.60;;;;;;;14.06;39.66;100221.13;5031940;28;20473;-37
2021/04/24 06:24:48;;;;;;;51.95;25.65;;;;;;;13.41;41.53;100218.56;5033657;28;20021;-38
2021/04/24 06:27:13;;;;;;;13.07;6.03;;;;;;;13.70;40.30;100224.41;5030227;28;20088;-39
2021/04/24 06:29:39;;;;;;;12.60;5.07;;;;;;;14.23;39.48;100218.78;5013732;28;20099;-36
2021/04/24 06:32:05;;;;;;;13.93;5.10;;;;;;;13.48;40.60;100218.53;5013401;28;20033;-39
2021/04/24 06:34:30;;;;;;;10.85;4.47;;;;;;;13.00;40.75;100230.31;5013108;28;20102;-39
2021/04/24 06:36:56;;;;;;;7.75;5.00;;;;;;;13.58;40.70;100228.78;5023893;28;20029;-37
2021/04/24 06:39:21;;;;;;;10.45;4.75;;;;;;;13.42;39.97;100236.25;5033376;28;20071;-38
2021/04/24 06:41:47;;;;;;;8.38;4.60;;;;;;;12.84;41.14;100231.56;5032845;28;20021;-51
2021/04/24 06:44:12;;;;;;;9.50;5.20;;;;;;;13.28;40.03;100229.25;5031082;28;20048;-49
2021/04/24 06:46:38;;;;;;;12.13;4.82;;;;;;;13.76;39.51;100228.91;5032994;28;20021;-38
2021/04/24 06:49:03;;;;;;;9.73;4.75;;;;;;;13.41;40.30;100226.56;5033450;28;20030;-51
2021/04/24 06:51:29;;;;;;;9.52;4.53;;;;;;;13.25;40.26;100227.81;5033469;28;20033;-38
2021/04/24 06:53:54;;;;;;;8.80;5.03;;;;;;;13.84;39.56;100225.16;5033245;28;20026;-38
2021/04/24 06:56:20;;;;;;;9.32;4.43;;;;;;;13.88;39.00;100229.09;5033405;28;20152;-38
2021/04/24 06:58:46;;;;;;;8.75;4.70;;;;;;;13.86;38.57;100226.63;5033080;28;20025;-48
2021/04/24 07:01:11;;;;;;;8.05;4.63;;;;;;;13.91;38.95;100233.97;5033518;28;20033;-48
2021/04/24 07:03:37;;;;;;;11.60;4.80;;;;;;;14.18;38.10;100234.66;5032909;28;20014;-49
2021/04/24 07:06:04;;;;;;;19.60;9.00;;;;;;;14.07;37.99;100233.50;5033389;28;20499;-40
2021/04/24 07:08:29;;;;;;;14.43;6.18;;;;;;;13.85;37.99;100243.69;5033281;28;20028;-39
2021/04/24 07:10:55;;;;;;;14.05;4.80;;;;;;;14.12;38.38;100234.72;5033091;28;20037;-50
2021/04/24 07:13:21;;;;;;;11.13;4.45;;;;;;;14.16;37.69;100236.72;5028311;28;20182;-48
2021/04/24 07:15:47;;;;;;;19.13;8.57;;;;;;;13.59;38.83;100241.94;5033261;28;20025;-38
2021/04/24 07:18:12;;;;;;;16.90;8.27;;;;;;;13.71;38.49;100246.63;5031303;28;20489;-37
2021/04/24 07:20:38;;;;;;;19.05;9.07;;;;;;;14.35;37.28;100248.34;5031065;28;20037;-37
2021/04/24 07:23:03;;;;;;;11.00;5.65;;;;;;;14.40;36.20;100248.53;5032437;28;20500;-38
2021/04/24 07:25:29;;;;;;;10.48;5.00;;;;;;;13.62;37.18;100244.19;5032436;28;20022;-38
2021/04/24 07:27:54;;;;;;;8.63;5.80;;;;;;;14.10;36.97;100250.16;5030607;28;20029;-38
2021/04/24 07:30:20;;;;;;;10.70;4.75;;;;;;;14.65;35.95;100250.44;5032541;28;20385;-38
2021/04/24 07:32:46;;;;;;;11.07;4.60;;;;;;;13.73;38.23;100257.91;5031781;28;20038;-38
2021/04/24 07:35:11;;;;;;;13.60;5.13;;;;;;;13.68;38.34;100258.56;5031972;28;20041;-38
2021/04/24 07:37:37;;;;;;;12.45;5.40;;;;;;;14.97;38.20;100261.13;5029230;28;20050;-38
2021/04/24 07:40:04;;;;;;;17.02;8.43;;;;;;;15.34;35.14;100264.66;5032539;28;20381;-38
2021/04/24 07:42:29;;;;;;;13.50;7.25;;;;;;;15.41;35.27;100259.25;5032166;28;20028;-38
2021/04/24 07:44:55;;;;;;;11.13;5.45;;;;;;;15.80;35.13;100258.00;5031610;28;20017;-38
2021/04/24 07:47:20;;;;;;;11.05;5.03;;;;;;;15.76;35.11;100258.66;5033003;28;20087;-38
2021/04/24 07:49:46;;;;;;;10.68;5.85;;;;;;;16.15;34.06;100259.22;5032687;28;20087;-38
2021/04/24 07:52:11;;;;;;;8.77;5.30;;;;;;;15.99;34.71;100256.13;5031908;28;20032;-37
2021/04/24 07:54:44;;;;;;;8.77;4.60;;;;;;;16.12;34.56;100254.28;5030758;28;20029;-37
2021/04/24 07:57:13;;;;;;;9.48;4.60;;;;;;;15.78;34.30;100259.25;5031220;28;20037;-38
2021/04/24 07:59:39;;;;;;;14.32;5.55;;;;;;;16.14;33.65;100252.19;5031957;28;20014;-38
2021/04/24 08:02:04;;;;;;;13.15;5.40;;;;;;;16.23;33.50;100251.63;5030675;28;20040;-38
2021/04/24 08:04:30;;;;;;;9.02;5.05;;;;;;;16.52;33.22;100256.41;5030177;28;20482;-38
2021/04/24 08:06:55;;;;;;;9.32;4.90;;;;;;;16.59;33.09;100251.75;5030087;28;20098;-39
2021/04/24 08:09:20;;;;;;;13.98;5.30;;;;;;;16.34;33.53;100251.94;5030201;28;20036;-37
2021/04/24 08:11:46;;;;;;;9.52;5.05;;;;;;;16.21;33.59;100251.06;5029501;28;20156;-37
2021/04/24 08:14:11;;;;;;;12.82;4.85;;;;;;;16.17;33.40;100252.56;5029556;28;20531;-37
2021/04/24 08:16:37;;;;;;;10.00;5.32;;;;;;;16.01;33.75;100247.81;5030205;28;20101;-38
2021/04/24 08:19:02;;;;;;;7.97;5.15;;;;;;;16.02;33.82;100244.91;5030685;28;20095;-39
2021/04/24 08:21:29;;;;;;;10.13;5.07;;;;;;;15.98;33.90;100259.84;5031712;28;20186;-38
2021/04/24 08:23:59;;;;;;;10.50;4.78;;;;;;;16.32;34.00;100257.53;5030193;28;20029;-38
2021/04/24 08:26:28;;;;;;;15.00;4.75;;;;;;;16.40;34.33;100257.19;5031547;28;20088;-38
2021/04/24 08:28:54;;;;;;;10.07;4.90;;;;;;;16.45;33.22;100250.31;5031257;28;20045;-38
2021/04/24 08:31:19;;;;;;;10.70;5.20;;;;;;;16.44;33.60;100248.69;5031367;28;20048;-38
2021/04/24 08:33:45;;;;;;;11.55;5.30;;;;;;;17.00;33.02;100248.22;5031418;28;20175;-37
2021/04/24 08:36:10;;;;;;;14.35;6.40;;;;;;;17.31;32.94;100246.19;5030891;28;20026;-38
2021/04/24 08:38:36;;;;;;;9.85;5.18;;;;;;;17.16;32.46;100246.69;5030982;28;20516;-37
2021/04/24 08:41:05;;;;;;;8.63;4.40;;;;;;;17.43;32.43;100240.81;5031076;28;20040;-38
2021/04/24 08:43:31;;;;;;;10.95;5.30;;;;;;;17.46;32.39;100231.44;5030762;28;20280;-38
2021/04/24 08:45:57;;;;;;;9.60;4.75;;;;;;;17.64;31.71;100230.47;5029305;28;20214;-39
2021/04/24 08:48:22;;;;;;;14.57;5.20;;;;;;;18.08;31.46;100220.03;5029551;28;20021;-38
2021/04/24 08:50:48;;;;;;;12.15;5.20;;;;;;;17.88;31.03;100228.56;5031010;28;20036;-38
2021/04/24 08:53:17;;;;;;;9.95;4.63;;;;;;;18.32;30.85;100221.56;5031106;28;20466;-37
2021/04/24 08:55:42;;;;;;;11.40;5.35;;;;;;;18.09;30.92;100216.28;5031242;28;20037;-37
2021/04/24 08:58:08;;;;;;;7.93;4.95;;;;;;;17.92;31.15;100214.38;5030870;28;20037;-38
2021/04/24 09:00:39;;;;;;;8.80;4.50;;;;;;;17.77;30.96;100219.44;5031085;28;20021;-38
2021/04/24 09:03:06;;;;;;;10.52;4.70;;;;;;;17.23;32.50;100205.38;5030624;28;20021;-38
2021/04/24 09:05:31;;;;;;;7.55;4.20;;;;;;;17.68;31.73;100196.63;5030693;28;20021;-38
2021/04/24 09:08:04;;;;;;;8.77;4.22;;;;;;;17.81;31.18;100196.34;5029897;28;20075;-38
2021/04/24 09:10:38;;;;;;;9.52;4.15;;;;;;;17.83;31.12;100198.81;5030053;28;20532;-38
2021/04/24 09:13:04;;;;;;;9.90;4.80;;;;;;;18.39;30.87;100196.31;5030647;28;20029;-38
2021/04/24 09:15:29;;;;;;;9.82;5.20;;;;;;;18.21;31.13;100187.41;5030464;28;20174;-38
2021/04/24 09:18:00;;;;;;;9.45;5.15;;;;;;;18.94;30.40;100190.19;5030443;28;20022;-39
2021/04/24 09:20:28;;;;;;;9.77;4.70;;;;;;;19.01;30.80;100185.44;5030534;28;20029;-39
2021/04/24 09:23:05;;;;;;;9.10;5.03;;;;;;;18.90;30.54;100180.97;5030291;28;20025;-40
2021/04/24 09:25:35;;;;;;;13.75;4.65;;;;;;;18.58;30.40;100184.22;5030641;28;20088;-38
2021/04/24 09:28:00;;;;;;;10.70;4.20;;;;;;;19.33;29.92;100174.00;5030340;28;20048;-37
2021/04/24 09:30:28;;;;;;;10.00;4.80;;;;;;;19.53;29.73;100176.13;5029760;28;20108;-38
2021/04/24 09:32:54;;;;;;;11.25;4.80;;;;;;;19.53;29.94;100176.13;5030031;28;20033;-38
2021/04/24 09:35:21;;;;;;;8.63;4.65;;;;;;;19.83;29.31;100167.56;5030031;28;20105;-39
2021/04/24 09:38:02;;;;;;;10.57;4.60;;;;;;;20.26;28.69;100168.53;5029581;28;20029;-38
2021/04/24 09:40:27;;;;;;;7.53;4.30;;;;;;;19.62;28.63;100168.41;5030091;28;20026;-38
2021/04/24 09:43:07;;;;;;;7.28;4.25;;;;;;;19.87;28.98;100165.19;5030362;28;20487;-38
2021/04/24 09:45:40;;;;;;;12.95;4.68;;;;;;;20.26;28.41;100170.41;5029655;28;20091;-38
2021/04/24 09:48:22;;;;;;;11.55;5.53;;;;;;;19.92;28.51;100162.53;5029820;28;20044;-38
2021/04/24 09:50:47;;;;;;;10.02;4.60;;;;;;;19.89;29.18;100161.16;5029648;28;20029;-38
2021/04/24 09:53:22;;;;;;;11.35;4.53;;;;;;;19.74;28.65;100161.00;5029533;28;20032;-38
2021/04/24 09:55:49;;;;;;;6.72;4.15;;;;;;;20.07;28.76;100168.09;5029063;28;20033;-39
2021/04/24 09:58:32;;;;;;;6.75;4.25;;;;;;;20.54;28.28;100166.56;5029088;28;20044;-38
2021/04/24 10:01:23;;;;;;;8.48;4.80;;;;;;;20.46;28.83;100156.25;5029459;28;20398;-39
2021/04/24 10:03:50;;;;;;;8.65;4.25;;;;;;;20.89;28.15;100162.53;5029087;28;20017;-40
2021/04/24 10:06:24;;;;;;;9.05;4.70;;;;;;;21.00;27.01;100157.97;5029025;28;20034;-39
2021/04/24 10:08:50;;;;;;;15.90;5.50;;;;;;;20.87;28.37;100160.06;5029206;28;20025;-38
2021/04/24 10:11:28;;;;;;;8.63;4.20;;;;;;;20.79;28.06;100162.44;5028039;28;20084;-39
2021/04/24 10:13:53;;;;;;;11.82;5.40;;;;;;;20.84;28.46;100157.06;5029693;28;20112;-38
2021/04/24 10:16:54;;;;;;;12.63;5.00;;;;;;;20.78;28.48;100150.00;5028460;28;20033;-39
2021/04/24 10:19:20;;;;;;;14.65;6.07;;;;;;;20.62;27.63;100151.78;5007642;28;20069;-39
2021/04/24 10:21:45;;;;;;;9.88;4.97;;;;;;;20.97;27.22;100143.06;5025202;28;20315;-38
2021/04/24 10:24:11;;;;;;;9.38;5.22;;;;;;;20.48;28.46;100145.97;5029573;28;20033;-39
2021/04/24 10:26:38;;;;;;;8.18;4.85;;;;;;;20.19;28.52;100154.41;5029454;28;20346;-50
2021/04/24 10:29:04;;;;;;;13.25;5.30;;;;;;;20.06;28.28;100142.13;5029565;28;20033;-50
2021/04/24 10:31:30;;;;;;;9.25;4.68;;;;;;;19.80;28.18;100146.50;5029663;28;20100;-48
2021/04/24 10:33:56;;;;;;;13.13;5.45;;;;;;;19.70;28.79;100152.59;5029363;28;20577;-49
2021/04/24 10:36:21;;;;;;;13.15;5.45;;;;;;;20.07;28.20;100148.38;5029388;28;20350;-49
2021/04/24 10:38:49;;;;;;;10.63;5.25;;;;;;;20.13;28.32;100147.34;5029260;28;20017;-51
2021/04/24 10:41:15;;;;;;;13.90;5.28;;;;;;;20.10;28.65;100145.97;5029441;28;20463;-50
2021/04/24 10:43:41;;;;;;;10.23;4.68;;;;;;;20.50;28.13;100152.78;5028430;28;20101;-48
2021/04/24 10:46:28;;;;;;;12.80;5.70;;;;;;;20.48;28.15;100154.91;5029342;28;20017;-51
2021/04/24 10:49:23;;;;;;;12.05;5.45;;;;;;;20.65;28.38;100162.09;5008433;28;20022;-51
2021/04/24 10:51:55;;;;;;;10.00;5.00;;;;;;;20.24;28.40;100161.75;5007534;28;20034;-52
2021/04/24 10:54:21;;;;;;;10.30;5.00;;;;;;;19.75;28.87;100157.25;5009587;28;20480;-50
2021/04/24 10:56:47;;;;;;;12.98;5.35;;;;;;;20.20;28.49;100166.03;5009679;28;20509;-49
2021/04/24 10:59:23;;;;;;;10.73;5.57;;;;;;;20.28;28.39;100169.09;5009707;28;20026;-48
2021/04/24 11:02:06;;;;;;;12.32;5.47;;;;;;;20.37;27.94;100174.00;5008690;28;20033;-50
2021/04/24 11:04:42;;;;;;;10.10;5.35;;;;;;;20.15;28.24;100172.22;5009559;28;20066;-50
2021/04/24 11:07:24;;;;;;;8.88;4.63;;;;;;;20.02;28.96;100180.72;5022893;28;20025;-48
2021/04/24 11:10:12;;;;;;;9.43;4.63;;;;;;;19.91;28.50;100175.25;5032851;28;20088;-52
2021/04/24 11:12:41;;;;;;;10.65;4.80;;;;;;;19.65;29.00;100186.81;5033068;28;20468;-48
2021/04/24 11:15:07;;;;;;;10.57;5.00;;;;;;;19.58;29.21;100189.69;5033268;28;20121;-50
2021/04/24 11:17:33;;;;;;;10.90;4.90;;;;;;;19.61;29.38;100193.75;5033357;28;20052;-48
2021/04/24 11:19:59;;;;;;;10.40;4.60;;;;;;;19.55;28.73;100187.47;5032992;28;20028;-51
2021/04/24 11:22:32;;;;;;;7.00;4.55;;;;;;;19.97;28.87;100186.06;5032919;28;20021;-48